Time;durP1;ratioP1;P1;durP2;ratioP2;P2;SDS_P1;SDS_P2;PMS_P1;PMS_P2;Temp;Humidity;BMP_temperature;BMP_pressure;BME280_temperature;BME280_humidity;BME280_pressure;Samples;Min_cycle;Max_cycle;Signal;HPM_P1;HPM_P2
2023/07/30 00:00:43;;;;;;;15.75;8.07;;;22.20;99.90;;;;;;5111895;28;20027;-73
2023/07/30 00:03:08;;;;;;;13.25;7.68;;;22.30;99.90;;;;;;5112263;28;20076;-74
2023/07/30 00:05:34;;;;;;;15.35;8.95;;;22.40;99.90;;;;;;5111743;28;20092;-80
2023/07/30 00:08:00;;;;;;;13.38;8.38;;;22.40;99.90;;;;;;5112127;28;20098;-79
2023/07/30 00:10:26;;;;;;;14.77;9.15;;;22.20;99.90;;;;;;5111835;28;20027;-80
2023/07/30 00:12:52;;;;;;;16.77;7.45;;;22.20;99.90;;;;;;5112002;28;20145;-79
2023/07/30 00:15:17;;;;;;;15.68;8.25;;;22.00;99.90;;;;;;5111366;28;20020;-79
2023/07/30 00:17:43;;;;;;;15.32;7.68;;;22.00;99.90;;;;;;5111939;28;20032;-80
2023/07/30 00:20:09;;;;;;;13.40;8.48;;;22.00;99.90;;;;;;5100544;28;20052;-79
2023/07/30 00:22:35;;;;;;;13.85;8.20;;;22.00;99.90;;;;;;5112006;28;20467;-80
2023/07/30 00:25:01;;;;;;;12.85;7.13;;;22.00;99.90;;;;;;5093482;28;20030;-77
2023/07/30 00:27:27;;;;;;;13.95;8.32;;;22.00;99.90;;;;;;5111991;28;20043;-79
2023/07/30 00:29:53;;;;;;;11.27;7.20;;;21.90;99.90;;;;;;5093672;28;20362;-79
2023/07/30 00:32:18;;;;;;;16.60;8.38;;;21.90;99.90;;;;;;5110934;28;20193;-75
2023/07/30 00:34:44;;;;;;;12.98;7.93;;;22.00;99.90;;;;;;5091116;28;20038;-75
2023/07/30 00:37:11;;;;;;;11.88;8.05;;;22.00;99.90;;;;;;5079408;28;20034;-79
2023/07/30 00:39:37;;;;;;;11.50;7.47;;;22.00;99.90;;;;;;5084415;28;20031;-75
2023/07/30 00:42:02;;;;;;;16.13;8.30;;;22.00;99.90;;;;;;5087491;28;20093;-77
2023/07/30 00:44:28;;;;;;;13.65;8.55;;;21.90;99.90;;;;;;5075590;28;20028;-79
2023/07/30 00:46:56;;;;;;;11.98;7.63;;;21.90;99.90;;;;;;5105045;28;20082;-79
2023/07/30 00:49:21;;;;;;;13.70;7.88;;;21.90;99.90;;;;;;5114849;28;20047;-79
2023/07/30 00:51:47;;;;;;;12.85;8.15;;;21.80;99.90;;;;;;5097153;28;20031;-79
2023/07/30 00:54:13;;;;;;;13.73;7.95;;;21.80;99.90;;;;;;5114950;28;20026;-79
2023/07/30 00:56:44;;;;;;;12.63;8.18;;;21.80;99.90;;;;;;5096355;28;20124;-79
2023/07/30 00:59:10;;;;;;;14.77;8.18;;;21.70;99.90;;;;;;5096582;28;20024;-79
2023/07/30 01:01:41;;;;;;;12.80;8.40;;;21.70;99.90;;;;;;5115166;28;20051;-79
2023/07/30 01:04:07;;;;;;;12.07;7.85;;;21.70;99.90;;;;;;5114759;28;20024;-79
2023/07/30 01:06:33;;;;;;;15.15;8.27;;;21.70;99.90;;;;;;5096698;28;20036;-78
2023/07/30 01:08:59;;;;;;;17.08;9.07;;;21.70;99.90;;;;;;5113782;28;20024;-77
2023/07/30 01:11:26;;;;;;;15.40;8.43;;;21.60;99.90;;;;;;5094213;28;20372;-79
2023/07/30 01:13:53;;;;;;;14.70;9.02;;;21.60;99.90;;;;;;5082807;28;20016;-75
2023/07/30 01:16:20;;;;;;;14.43;9.00;;;21.60;99.90;;;;;;5114661;28;20066;-79
2023/07/30 01:18:46;;;;;;;15.80;8.98;;;21.50;99.90;;;;;;5114698;28;20454;-80
2023/07/30 01:21:12;;;;;;;13.60;8.70;;;21.40;99.90;;;;;;5114761;28;20019;-79
2023/07/30 01:23:38;;;;;;;13.77;9.00;;;21.50;99.90;;;;;;5092401;28;20872;-79
2023/07/30 01:26:23;;;;;;;13.57;8.70;;;21.50;99.90;;;;;;5104190;28;20478;-74
2023/07/30 01:28:54;;;;;;;15.32;8.10;;;21.40;99.90;;;;;;5114557;28;20015;-77
2023/07/30 01:31:23;;;;;;;13.60;8.73;;;21.40;99.90;;;;;;5114433;28;20028;-78
2023/07/30 01:33:54;;;;;;;14.35;9.38;;;21.40;99.90;;;;;;5083052;28;20478;-79
2023/07/30 01:36:21;;;;;;;15.75;9.20;;;21.40;99.90;;;;;;5095680;28;20038;-78
2023/07/30 01:38:49;;;;;;;12.93;8.55;;;21.30;99.90;;;;;;5095612;28;20038;-79
2023/07/30 01:41:15;;;;;;;13.00;8.90;;;21.30;99.90;;;;;;5094956;28;20031;-78
2023/07/30 01:43:41;;;;;;;13.27;8.98;;;21.30;99.90;;;;;;5104586;28;20089;-78
2023/07/30 01:46:07;;;;;;;13.63;8.25;;;21.30;99.90;;;;;;5114031;28;20475;-76
2023/07/30 01:48:33;;;;;;;12.30;9.05;;;21.30;99.90;;;;;;5113791;28;20038;-79
2023/07/30 01:50:59;;;;;;;12.13;8.35;;;21.20;99.90;;;;;;5107899;28;20024;-74
2023/07/30 01:53:25;;;;;;;14.50;8.63;;;21.30;99.90;;;;;;5113940;28;20505;-77
2023/07/30 01:55:51;;;;;;;13.60;8.70;;;21.20;99.90;;;;;;5112426;28;20024;-75
2023/07/30 01:58:17;;;;;;;14.20;8.32;;;21.30;99.90;;;;;;5093936;28;20483;-75
2023/07/30 02:00:44;;;;;;;15.65;7.85;;;21.20;99.90;;;;;;5112218;28;20084;-79
2023/07/30 02:03:09;;;;;;;15.93;8.00;;;21.20;99.90;;;;;;5108989;28;20032;-74
2023/07/30 02:05:35;;;;;;;15.52;9.15;;;21.10;99.90;;;;;;5094131;28;20058;-77
2023/07/30 02:08:01;;;;;;;10.95;7.57;;;21.00;99.90;;;;;;5087246;28;20032;-74
2023/07/30 02:10:27;;;;;;;13.43;8.15;;;21.00;99.90;;;;;;5107627;28;20426;-75
2023/07/30 02:12:53;;;;;;;13.63;7.80;;;21.00;99.90;;;;;;5092300;28;20024;-77
2023/07/30 02:15:19;;;;;;;14.88;8.70;;;21.00;99.90;;;;;;5093896;28;20084;-74
2023/07/30 02:17:45;;;;;;;14.00;8.52;;;21.10;99.90;;;;;;5110270;28;20024;-75
2023/07/30 02:20:10;;;;;;;12.68;7.85;;;21.10;99.90;;;;;;5089220;28;20584;-78
2023/07/30 02:22:36;;;;;;;12.98;8.57;;;21.00;99.90;;;;;;5091805;28;20058;-78
2023/07/30 02:25:03;;;;;;;14.77;8.10;;;20.90;99.90;;;;;;5112644;28;20023;-77
2023/07/30 02:27:29;;;;;;;12.98;7.95;;;20.90;99.90;;;;;;5112129;28;20039;-78
2023/07/30 02:29:55;;;;;;;9.85;7.95;;;20.80;99.90;;;;;;5091665;28;20015;-74
2023/07/30 02:32:21;;;;;;;12.82;8.02;;;20.80;99.90;;;;;;5113239;28;20077;-78
2023/07/30 02:34:47;;;;;;;11.82;8.30;;;20.80;99.90;;;;;;5113055;28;20023;-73
2023/07/30 02:37:13;;;;;;;17.58;8.70;;;20.80;99.90;;;;;;5113400;28;20438;-78
2023/07/30 02:39:39;;;;;;;14.73;8.48;;;20.80;99.90;;;;;;5112964;28;20035;-76
2023/07/30 02:42:05;;;;;;;16.70;8.40;;;20.70;99.90;;;;;;5112902;28;20050;-75
2023/07/30 02:44:30;;;;;;;12.77;7.82;;;20.80;99.90;;;;;;5111696;28;20036;-74
2023/07/30 02:46:56;;;;;;;11.57;8.00;;;20.70;99.90;;;;;;5112955;28;20038;-78
2023/07/30 02:49:22;;;;;;;11.82;7.95;;;20.70;99.90;;;;;;5112693;28;20031;-73
2023/07/30 02:51:48;;;;;;;10.77;7.60;;;20.70;99.90;;;;;;5113001;28;20028;-74
2023/07/30 02:54:16;;;;;;;10.50;7.30;;;20.70;99.90;;;;;;5112799;28;20390;-76
2023/07/30 02:56:43;;;;;;;16.17;7.90;;;20.70;99.90;;;;;;5112430;28;20015;-78
2023/07/30 02:59:09;;;;;;;11.73;7.55;;;20.60;99.90;;;;;;5094722;28;20492;-78
2023/07/30 03:01:35;;;;;;;10.75;7.30;;;20.60;99.90;;;;;;5094334;28;20024;-75
2023/07/30 03:04:01;;;;;;;12.18;6.75;;;20.60;99.90;;;;;;5113009;28;20077;-79
2023/07/30 03:06:27;;;;;;;11.90;7.28;;;20.60;99.90;;;;;;5090299;28;20038;-79
2023/07/30 03:08:53;;;;;;;10.80;7.47;;;20.50;99.90;;;;;;5094632;28;20023;-76
2023/07/30 03:11:19;;;;;;;9.88;6.97;;;20.60;99.90;;;;;;5111983;28;20035;-78
2023/07/30 03:13:45;;;;;;;12.55;7.60;;;20.60;99.90;;;;;;5094519;28;20471;-75
2023/07/30 03:16:10;;;;;;;11.48;7.15;;;20.60;99.90;;;;;;5112036;28;20031;-73
2023/07/30 03:18:36;;;;;;;12.35;7.38;;;20.60;99.90;;;;;;5112277;28;20084;-76
2023/07/30 03:21:05;;;;;;;16.63;7.65;;;20.40;99.90;;;;;;5112684;28;20068;-78
2023/07/30 03:23:31;;;;;;;13.38;8.25;;;20.40;99.90;;;;;;5093751;28;20483;-75
2023/07/30 03:26:00;;;;;;;13.27;7.55;;;20.40;99.90;;;;;;5094505;28;20035;-75
2023/07/30 03:28:26;;;;;;;15.07;7.30;;;20.50;99.90;;;;;;5112180;28;20102;-78
2023/07/30 03:30:51;;;;;;;11.68;7.40;;;20.50;99.90;;;;;;5093970;28;20122;-78
2023/07/30 03:33:17;;;;;;;12.15;7.88;;;20.40;99.90;;;;;;5093599;28;20035;-76
2023/07/30 03:35:43;;;;;;;10.25;7.28;;;20.50;99.90;;;;;;5112472;28;20019;-74
2023/07/30 03:38:09;;;;;;;11.55;8.00;;;20.50;99.90;;;;;;5112137;28;20103;-75
2023/07/30 03:40:35;;;;;;;11.60;8.02;;;20.60;99.90;;;;;;5112306;28;20027;-77
2023/07/30 03:43:00;;;;;;;12.10;8.25;;;20.80;99.90;;;;;;5111475;28;21085;-74
2023/07/30 03:45:26;;;;;;;10.60;8.13;;;21.20;99.90;;;;;;5093589;28;20495;-74
2023/07/30 03:47:52;;;;;;;11.50;7.53;;;21.60;99.90;;;;;;5093507;28;20027;-78
2023/07/30 03:50:18;;;;;;;10.70;6.75;;;21.90;99.90;;;;;;5112067;28;20055;-74
2023/07/30 03:52:44;;;;;;;13.05;6.68;;;22.60;99.90;;;;;;5080325;28;20497;-74
2023/07/30 03:55:09;;;;;;;9.23;6.13;;;23.10;99.90;;;;;;5111810;28;20020;-76
2023/07/30 03:57:35;;;;;;;12.65;6.78;;;23.70;99.90;;;;;;5093747;28;20046;-78
2023/07/30 04:00:04;;;;;;;9.48;5.78;;;24.20;99.90;;;;;;5093026;28;20051;-74
2023/07/30 04:02:40;;;;;;;9.85;5.38;;;25.10;99.90;;;;;;5112131;28;20077;-75
2023/07/30 04:05:06;;;;;;;9.80;6.05;;;25.30;99.90;;;;;;5092931;28;20039;-75
2023/07/30 04:07:31;;;;;;;11.57;6.63;;;25.40;99.90;;;;;;5112179;28;20070;-73
2023/07/30 04:09:57;;;;;;;11.52;6.75;;;25.80;99.90;;;;;;5110302;28;20044;-74
2023/07/30 04:12:23;;;;;;;9.85;6.97;;;26.10;99.90;;;;;;5105295;28;20106;-76
2023/07/30 04:14:49;;;;;;;10.88;6.05;;;26.40;99.90;;;;;;5111301;28;20423;-80
2023/07/30 04:17:14;;;;;;;11.13;6.28;;;26.80;99.20;;;;;;5111552;28;20072;-75
2023/07/30 04:19:40;;;;;;;10.18;6.13;;;27.40;98.10;;;;;;5114965;28;20118;-79
2023/07/30 04:22:06;;;;;;;12.27;6.55;;;28.10;96.20;;;;;;5116027;28;20478;-78
2023/07/30 04:24:32;;;;;;;10.75;5.75;;;28.70;95.40;;;;;;5116157;28;20116;-79
2023/07/30 04:27:00;;;;;;;10.63;6.47;;;28.90;94.20;;;;;;5096596;28;20588;-77
2023/07/30 04:29:26;;;;;;;10.73;6.20;;;29.10;93.40;;;;;;5097559;28;20028;-80
2023/07/30 04:31:52;;;;;;;9.00;6.25;;;28.90;93.10;;;;;;5097213;28;20020;-75
2023/07/30 04:34:18;;;;;;;12.20;6.28;;;29.20;93.30;;;;;;5097191;28;20031;-81
2023/07/30 04:36:44;;;;;;;11.10;7.20;;;30.30;92.40;;;;;;5096503;28;20019;-74
2023/07/30 04:39:12;;;;;;;12.45;7.70;;;30.60;92.50;;;;;;5097283;28;20023;-81
2023/07/30 04:41:39;;;;;;;12.00;7.63;;;31.40;97.90;;;;;;5115237;28;20047;-74
2023/07/30 04:44:04;;;;;;;14.23;6.53;;;31.40;96.70;;;;;;5096760;28;20031;-74
2023/07/30 04:46:33;;;;;;;14.98;7.13;;;;;;;;;;5096994;28;20448;-80
2023/07/30 04:49:01;;;;;;;12.65;6.72;;;31.40;92.30;;;;;;5096248;28;20504;-81
2023/07/30 04:51:27;;;;;;;12.88;6.57;;;;;;;;;;5097103;28;20470;-75
2023/07/30 04:53:53;;;;;;;9.45;6.35;;;31.60;94.50;;;;;;5097193;28;20379;-80
2023/07/30 04:56:19;;;;;;;13.55;7.53;;;31.60;92.40;;;;;;5096761;28;20028;-81
2023/07/30 04:58:44;;;;;;;13.85;7.03;;;32.00;92.50;;;;;;5096918;28;20020;-78
2023/07/30 05:01:10;;;;;;;10.98;7.15;;;32.10;92.10;;;;;;5096650;28;20076;-75
2023/07/30 05:03:36;;;;;;;11.73;6.93;;;32.10;90.80;;;;;;5115370;28;20027;-77
2023/07/30 05:06:02;;;;;;;11.57;7.07;;;31.80;90.70;;;;;;5115926;28;20034;-79
2023/07/30 05:08:28;;;;;;;12.15;7.25;;;31.90;90.90;;;;;;5117364;28;20083;-80
2023/07/30 05:10:54;;;;;;;11.98;7.15;;;30.90;90.70;;;;;;5114827;28;20227;-80
2023/07/30 05:13:20;;;;;;;10.70;6.43;;;30.10;91.50;;;;;;5114630;28;20088;-79
2023/07/30 05:15:46;;;;;;;14.48;7.35;;;29.50;91.10;;;;;;5114280;28;20055;-81
2023/07/30 05:18:13;;;;;;;12.52;7.15;;;29.00;91.30;;;;;;5114682;28;20495;-82
2023/07/30 05:20:39;;;;;;;11.88;7.03;;;28.40;91.50;;;;;;5114159;28;20035;-78
2023/07/30 05:23:06;;;;;;;10.70;7.68;;;28.20;92.90;;;;;;5114812;28;20016;-81
2023/07/30 05:25:32;;;;;;;13.43;7.13;;;27.80;92.90;;;;;;5114539;28;20028;-80
2023/07/30 05:27:58;;;;;;;10.85;6.97;;;27.80;94.20;;;;;;5113703;28;20227;-81
2023/07/30 05:30:24;;;;;;;15.73;7.63;;;27.70;95.10;;;;;;5111763;28;20030;-77
2023/07/30 05:32:50;;;;;;;11.82;7.07;;;27.60;95.10;;;;;;5104930;28;20028;-80
2023/07/30 05:35:18;;;;;;;12.07;6.70;;;27.80;95.80;;;;;;5104226;28;20027;-81
2023/07/30 05:37:44;;;;;;;11.60;7.45;;;27.80;96.50;;;;;;5105766;28;20095;-79
2023/07/30 05:40:10;;;;;;;11.20;7.80;;;27.90;96.40;;;;;;5099787;28;20112;-81
2023/07/30 05:42:36;;;;;;;11.00;7.50;;;28.00;96.80;;;;;;5095684;28;20490;-81
2023/07/30 05:45:02;;;;;;;11.82;7.05;;;28.10;96.80;;;;;;5112248;28;20465;-80
2023/07/30 05:47:27;;;;;;;11.73;7.15;;;28.20;97.20;;;;;;5113903;28;20084;-79
2023/07/30 05:49:53;;;;;;;11.45;6.82;;;28.20;96.80;;;;;;5114171;28;20460;-81
2023/07/30 05:52:19;;;;;;;12.63;7.22;;;28.20;95.80;;;;;;5094848;28;20089;-80
2023/07/30 05:54:45;;;;;;;12.27;8.25;;;28.30;96.60;;;;;;5103538;28;20015;-75
2023/07/30 05:57:11;;;;;;;11.27;7.47;;;28.40;96.50;;;;;;5104560;28;20024;-81
2023/07/30 05:59:36;;;;;;;10.10;6.88;;;28.50;96.40;;;;;;5089580;28;20016;-80
2023/07/30 06:02:03;;;;;;;12.90;6.80;;;28.40;95.70;;;;;;5109591;28;20028;-75
2023/07/30 06:04:29;;;;;;;12.55;7.47;;;28.70;95.80;;;;;;5093392;28;20016;-79
2023/07/30 06:06:55;;;;;;;12.38;7.28;;;28.70;95.20;;;;;;5109660;28;20027;-80
2023/07/30 06:09:21;;;;;;;13.73;8.38;;;28.70;95.50;;;;;;5105859;28;20028;-78
2023/07/30 06:11:47;;;;;;;16.15;8.30;;;28.80;96.20;;;;;;5093891;28;20028;-79
2023/07/30 06:14:12;;;;;;;13.40;8.63;;;28.00;96.70;;;;;;5106176;28;20020;-74
2023/07/30 06:16:38;;;;;;;13.00;7.97;;;27.60;97.70;;;;;;5102968;28;20050;-80
2023/07/30 06:19:04;;;;;;;11.88;8.10;;;27.90;98.50;;;;;;5105040;28;20114;-81
2023/07/30 06:21:30;;;;;;;12.50;8.60;;;27.70;99.10;;;;;;5112921;28;20059;-81
2023/07/30 06:23:56;;;;;;;12.77;8.43;;;27.70;99.10;;;;;;5113248;28;20019;-80
2023/07/30 06:26:21;;;;;;;16.98;9.48;;;28.20;99.60;;;;;;5112598;28;20069;-81
2023/07/30 06:28:47;;;;;;;18.98;8.90;;;28.20;98.00;;;;;;5113527;28;20057;-75
2023/07/30 06:31:13;;;;;;;15.55;9.13;;;28.40;99.50;;;;;;5113451;28;20023;-81
2023/07/30 06:33:39;;;;;;;17.40;8.40;;;28.10;98.80;;;;;;5113648;28;20051;-80
2023/07/30 06:36:05;;;;;;;15.57;8.38;;;28.30;99.30;;;;;;5113462;28;20015;-80
2023/07/30 06:38:30;;;;;;;14.70;8.50;;;28.10;97.40;;;;;;5113281;28;20428;-80
2023/07/30 06:40:57;;;;;;;15.05;9.27;;;28.00;99.20;;;;;;5112644;28;20417;-81
2023/07/30 06:43:23;;;;;;;15.38;7.43;;;28.30;98.80;;;;;;5110672;28;20078;-80
2023/07/30 06:45:49;;;;;;;15.57;8.75;;;28.60;98.60;;;;;;5102746;28;20059;-77
2023/07/30 06:48:15;;;;;;;18.02;8.25;;;28.80;98.20;;;;;;5100504;28;20630;-78
2023/07/30 06:50:41;;;;;;;16.05;9.45;;;28.90;97.60;;;;;;5098627;28;20055;-79
2023/07/30 06:53:07;;;;;;;14.18;8.02;;;29.00;96.30;;;;;;5107480;28;20027;-79
2023/07/30 06:55:33;;;;;;;14.57;8.30;;;29.20;96.80;;;;;;5095902;28;20475;-79
2023/07/30 06:57:59;;;;;;;19.65;8.48;;;29.50;99.90;;;;;;5109908;28;20063;-78
2023/07/30 07:00:25;;;;;;;16.55;8.38;;;29.00;96.40;;;;;;5095814;28;20028;-80
2023/07/30 07:02:51;;;;;;;16.45;7.95;;;29.50;96.50;;;;;;5102786;28;20028;-79
2023/07/30 07:05:17;;;;;;;15.02;8.00;;;29.60;95.30;;;;;;5094845;28;20046;-74
2023/07/30 07:07:43;;;;;;;21.60;9.13;;;29.30;95.10;;;;;;5104667;28;20394;-80
2023/07/30 07:10:10;;;;;;;17.50;7.68;;;29.30;94.90;;;;;;5099179;28;20035;-75
2023/07/30 07:12:38;;;;;;;16.70;7.10;;;29.80;95.80;;;;;;5110720;28;20036;-78
2023/07/30 07:15:04;;;;;;;12.27;7.15;;;30.10;94.40;;;;;;5092948;28;20535;-73
2023/07/30 07:17:30;;;;;;;13.32;6.93;;;;;;;;;;5105816;28;20024;-75
2023/07/30 07:19:57;;;;;;;16.45;10.23;;;30.50;92.60;;;;;;5106426;28;20023;-78
2023/07/30 07:22:23;;;;;;;12.65;8.38;;;30.80;92.70;;;;;;5111580;28;20019;-79
2023/07/30 07:24:52;;;;;;;16.88;10.13;;;29.80;91.60;;;;;;5112797;28;20039;-76
2023/07/30 07:27:18;;;;;;;16.83;11.85;;;30.30;92.80;;;;;;5112767;28;20380;-79
2023/07/30 07:29:44;;;;;;;17.55;7.72;;;30.60;92.00;;;;;;5111782;28;20074;-78
2023/07/30 07:32:10;;;;;;;11.93;7.22;;;30.70;92.10;;;;;;5104286;28;20060;-81
2023/07/30 07:34:36;;;;;;;18.98;11.02;;;30.60;91.80;;;;;;5113137;28;20026;-73
2023/07/30 07:37:04;;;;;;;13.68;8.32;;;31.30;99.90;;;;;;5077771;28;20094;-80
2023/07/30 07:39:31;;;;;;;15.98;7.18;;;;;;;;;;5112849;28;20111;-74
2023/07/30 07:41:56;;;;;;;10.10;6.38;;;30.90;92.20;;;;;;5111960;28;20127;-73
2023/07/30 07:44:22;;;;;;;10.93;6.80;;;30.70;97.00;;;;;;5112825;28;20078;-73
2023/07/30 07:46:48;;;;;;;11.90;8.00;;;;;;;;;;5112355;28;20069;-75
2023/07/30 07:49:15;;;;;;;7.55;4.85;;;;;;;;;;5112958;28;20015;-75
2023/07/30 07:51:41;;;;;;;8.43;4.28;;;;;;;;;;5110592;28;20026;-80
2023/07/30 07:54:07;;;;;;;13.57;3.70;;;;;;;;;;5114824;28;20401;-81
2023/07/30 07:56:33;;;;;;;5.45;3.55;;;;;;;;;;5116364;28;20020;-78
2023/07/30 07:58:59;;;;;;;6.25;3.22;;;;;;;;;;5115847;28;20027;-76
2023/07/30 08:01:25;;;;;;;6.10;3.03;;;31.60;90.60;;;;;;5115711;28;20093;-79
2023/07/30 08:03:51;;;;;;;5.32;3.30;;;31.60;87.10;;;;;;5099194;28;20027;-76
2023/07/30 08:06:17;;;;;;;5.50;3.05;;;31.50;86.40;;;;;;5106948;28;20478;-74
2023/07/30 08:08:42;;;;;;;5.40;3.38;;;31.50;87.20;;;;;;5115290;28;20016;-72
2023/07/30 08:11:09;;;;;;;6.05;3.10;;;30.90;94.00;;;;;;5115500;28;20427;-80
2023/07/30 08:13:35;;;;;;;5.43;3.10;;;31.10;96.50;;;;;;5115867;28;20031;-75
2023/07/30 08:16:02;;;;;;;4.15;3.00;;;30.60;96.30;;;;;;5111686;28;20035;-74
2023/07/30 08:18:28;;;;;;;8.45;3.83;;;;;;;;;;5114969;28;20026;-76
2023/07/30 08:20:54;;;;;;;4.90;2.85;;;;;;;;;;5115727;28;20390;-81
2023/07/30 08:23:20;;;;;;;7.88;3.70;;;;;;;;;;5115350;28;20027;-81
2023/07/30 08:25:47;;;;;;;9.95;3.63;;;31.60;87.90;;;;;;5115611;28;20035;-81
2023/07/30 08:28:13;;;;;;;4.53;2.80;;;31.60;87.20;;;;;;5115902;28;20027;-79
2023/07/30 08:30:38;;;;;;;5.03;3.30;;;31.50;89.20;;;;;;5114459;28;20398;-81
2023/07/30 08:33:04;;;;;;;6.05;3.60;;;31.50;92.60;;;;;;5116020;28;20031;-80
2023/07/30 08:35:30;;;;;;;8.13;3.25;;;31.80;90.90;;;;;;5114318;28;20509;-77
2023/07/30 08:37:56;;;;;;;6.20;3.00;;;31.80;91.70;;;;;;5104880;28;20024;-78
2023/07/30 08:40:25;;;;;;;6.78;3.50;;;31.60;90.90;;;;;;5105983;28;20426;-77
2023/07/30 08:42:51;;;;;;;4.97;3.08;;;31.00;98.20;;;;;;5109727;28;20071;-81
2023/07/30 08:45:17;;;;;;;4.78;2.92;;;31.40;98.70;;;;;;5094967;28;20078;-81
2023/07/30 08:47:45;;;;;;;12.90;3.70;;;31.20;99.80;;;;;;5102967;28;20031;-79
2023/07/30 08:50:11;;;;;;;7.47;3.70;;;31.00;99.90;;;;;;5114741;28;20496;-77
2023/07/30 08:52:37;;;;;;;7.20;2.95;;;30.60;87.10;;;;;;5105772;28;20774;-76
2023/07/30 08:55:04;;;;;;;3.40;2.67;;;30.60;89.80;;;;;;5111985;28;20024;-74
2023/07/30 08:57:30;;;;;;;5.45;3.08;;;30.70;93.00;;;;;;5094993;28;20024;-81
2023/07/30 09:00:04;;;;;;;5.28;3.05;;;;;;;;;;5101247;28;20423;-81
2023/07/30 09:02:43;;;;;;;4.47;3.00;;;31.00;86.40;;;;;;5110925;28;20028;-82
2023/07/30 09:05:09;;;;;;;5.65;3.00;;;30.90;86.70;;;;;;5111535;28;20031;-79
2023/07/30 09:07:35;;;;;;;6.05;2.65;;;;;;;;;;5094620;28;20440;-81
2023/07/30 09:10:01;;;;;;;5.22;2.72;;;31.80;91.50;;;;;;5101133;28;20035;-80
2023/07/30 09:12:34;;;;;;;5.05;2.80;;;31.80;85.00;;;;;;5096605;28;20085;-80
2023/07/30 09:15:03;;;;;;;4.70;2.80;;;31.80;86.90;;;;;;5114570;28;20031;-82
2023/07/30 09:17:29;;;;;;;6.38;3.35;;;;;;;;;;5114810;28;20107;-81
2023/07/30 09:19:55;;;;;;;5.28;2.90;;;31.30;84.60;;;;;;5114739;28;20016;-83
2023/07/30 09:22:40;;;;;;;7.88;3.65;;;31.30;87.40;;;;;;5114874;28;20486;-75
2023/07/30 09:25:07;;;;;;;4.97;3.28;;;31.30;87.50;;;;;;5115186;28;20027;-80
2023/07/30 09:27:33;;;;;;;6.35;3.80;;;31.30;87.40;;;;;;5114060;28;20035;-81
2023/07/30 09:30:00;;;;;;;5.05;3.20;;;31.20;86.70;;;;;;5113768;28;20045;-82
2023/07/30 09:32:31;;;;;;;5.25;2.85;;;31.00;84.50;;;;;;5108275;28;20099;-77
2023/07/30 09:35:08;;;;;;;6.60;2.95;;;30.90;86.20;;;;;;5109935;28;20454;-82
2023/07/30 09:37:38;;;;;;;7.60;3.25;;;30.80;83.50;;;;;;5106207;28;20025;-81
2023/07/30 09:40:09;;;;;;;7.50;3.50;;;30.90;85.50;;;;;;5079659;28;20039;-80
2023/07/30 09:42:39;;;;;;;6.88;2.83;;;30.80;85.30;;;;;;5091868;28;20098;-75
2023/07/30 09:45:09;;;;;;;4.43;2.58;;;30.70;84.80;;;;;;5100260;28;20024;-82
2023/07/30 09:47:37;;;;;;;5.45;3.08;;;30.50;84.90;;;;;;5114540;28;20122;-82
2023/07/30 09:50:03;;;;;;;5.03;2.72;;;30.60;86.10;;;;;;5115054;28;20020;-74
2023/07/30 09:52:31;;;;;;;4.00;3.17;;;30.60;86.50;;;;;;5113002;28;20031;-82
2023/07/30 09:55:02;;;;;;;4.53;2.97;;;30.60;86.20;;;;;;5114920;28;20020;-81
2023/07/30 09:57:27;;;;;;;7.28;2.97;;;30.60;88.20;;;;;;5114080;28;20096;-81
2023/07/30 09:59:53;;;;;;;4.93;2.92;;;30.60;88.40;;;;;;5105059;28;20024;-82
2023/07/30 10:02:19;;;;;;;7.05;3.35;;;30.60;88.80;;;;;;5095149;28;20028;-82
2023/07/30 10:04:50;;;;;;;6.72;3.33;;;30.40;87.70;;;;;;5111406;28;20030;-82
2023/07/30 10:07:19;;;;;;;9.02;3.25;;;30.70;86.00;;;;;;5111814;28;20044;-78
2023/07/30 10:09:48;;;;;;;7.15;3.30;;;30.90;86.70;;;;;;5100518;28;20016;-83
2023/07/30 10:12:21;;;;;;;7.05;3.40;;;31.10;86.50;;;;;;5097657;28;20039;-81
2023/07/30 10:14:47;;;;;;;7.55;3.40;;;30.80;89.60;;;;;;5094693;28;20024;-79
2023/07/30 10:17:13;;;;;;;4.43;2.90;;;30.90;87.00;;;;;;5104133;28;20019;-78
2023/07/30 10:19:39;;;;;;;5.90;3.88;;;31.00;88.80;;;;;;5113976;28;20031;-74
2023/07/30 10:22:14;;;;;;;5.30;2.95;;;31.00;89.10;;;;;;5114187;28;20026;-82
2023/07/30 10:24:40;;;;;;;4.30;3.25;;;31.20;88.80;;;;;;5113648;28;20027;-82
2023/07/30 10:27:12;;;;;;;8.73;3.95;;;31.20;90.10;;;;;;5113382;28;20026;-74
2023/07/30 10:29:41;;;;;;;6.43;3.40;;;31.00;88.20;;;;;;5113923;28;20023;-80
2023/07/30 10:32:08;;;;;;;6.32;3.72;;;31.10;87.60;;;;;;5113453;28;20046;-82
2023/07/30 10:34:45;;;;;;;7.88;3.53;;;31.30;89.60;;;;;;5113489;28;20081;-73
2023/07/30 10:37:17;;;;;;;8.95;4.22;;;31.20;87.20;;;;;;5101392;28;20107;-83
2023/07/30 10:39:43;;;;;;;7.20;3.83;;;31.40;88.40;;;;;;5113032;28;20043;-82
2023/07/30 10:42:08;;;;;;;9.52;3.75;;;31.50;86.90;;;;;;5113443;28;20039;-80
2023/07/30 10:44:35;;;;;;;7.60;3.75;;;31.10;88.20;;;;;;5112941;28;20032;-83
2023/07/30 10:47:03;;;;;;;6.15;3.67;;;30.90;88.20;;;;;;5113317;28;20035;-78
2023/07/30 10:49:29;;;;;;;6.22;4.00;;;31.20;89.20;;;;;;5112731;28;20187;-82
2023/07/30 10:51:57;;;;;;;5.75;3.50;;;31.20;88.60;;;;;;5113255;28;20020;-82
2023/07/30 10:54:23;;;;;;;5.30;3.58;;;31.30;88.30;;;;;;5113019;28;20466;-79
2023/07/30 10:56:49;;;;;;;8.30;3.70;;;31.00;88.30;;;;;;5113132;28;20019;-82
2023/07/30 10:59:15;;;;;;;5.28;2.92;;;31.00;99.90;;;;;;5112881;28;20028;-82
2023/07/30 11:01:43;;;;;;;7.13;3.83;;;31.30;88.20;;;;;;5113275;28;20047;-75
2023/07/30 11:04:10;;;;;;;8.82;3.67;;;31.50;88.30;;;;;;5112592;28;20088;-77
2023/07/30 11:06:37;;;;;;;6.78;3.70;;;31.30;85.80;;;;;;5105493;28;20036;-81
2023/07/30 11:09:04;;;;;;;7.50;4.00;;;31.50;87.50;;;;;;5093110;28;20024;-82
2023/07/30 11:11:31;;;;;;;8.15;4.00;;;31.70;86.80;;;;;;5112688;28;20081;-82
2023/07/30 11:13:57;;;;;;;6.60;3.88;;;31.90;87.50;;;;;;5112906;28;20039;-82
2023/07/30 11:16:23;;;;;;;6.72;4.00;;;32.20;90.70;;;;;;5113337;28;20459;-75
2023/07/30 11:18:50;;;;;;;6.10;3.60;;;32.40;97.30;;;;;;5112980;28;20069;-83
2023/07/30 11:21:17;;;;;;;6.57;3.78;;;31.70;98.40;;;;;;5112821;28;20555;-83
2023/07/30 11:23:44;;;;;;;4.82;3.63;;;31.90;99.10;;;;;;5112684;28;20020;-81
2023/07/30 11:26:16;;;;;;;7.80;4.30;;;31.60;87.10;;;;;;5112520;28;20468;-82
2023/07/30 11:28:42;;;;;;;7.80;4.00;;;31.30;86.20;;;;;;5112492;28;20032;-82
2023/07/30 11:31:14;;;;;;;7.68;3.60;;;31.50;86.70;;;;;;5093543;28;20024;-83
2023/07/30 11:33:45;;;;;;;6.65;3.33;;;31.70;86.30;;;;;;5111024;28;20335;-83
2023/07/30 11:36:20;;;;;;;5.90;3.65;;;31.40;86.30;;;;;;5112669;28;20474;-83
2023/07/30 11:38:46;;;;;;;6.40;4.20;;;31.60;87.90;;;;;;5099588;28;20016;-82
2023/07/30 11:41:13;;;;;;;7.97;3.90;;;31.60;88.10;;;;;;5112451;28;20463;-82
2023/07/30 11:43:41;;;;;;;7.80;3.75;;;31.40;87.90;;;;;;5113278;28;20355;-74
2023/07/30 11:46:14;;;;;;;8.68;4.25;;;31.40;87.90;;;;;;5112354;28;20078;-77
2023/07/30 11:48:42;;;;;;;6.78;3.83;;;31.50;87.50;;;;;;5112765;28;20024;-83
2023/07/30 11:51:19;;;;;;;5.15;3.75;;;31.40;88.40;;;;;;5112600;28;20024;-83
2023/07/30 11:53:51;;;;;;;6.53;3.55;;;31.30;87.40;;;;;;5112523;28;20027;-83
2023/07/30 11:56:21;;;;;;;;;;;31.30;87.60;;;;;;5113004;28;20375;-81
2023/07/30 11:58:48;;;;;;;6.82;4.10;;;31.10;86.80;;;;;;5112034;28;20302;-81
2023/07/30 12:01:18;;;;;;;10.68;4.18;;;31.10;89.10;;;;;;5112306;28;20124;-82
2023/07/30 12:03:44;;;;;;;10.32;4.22;;;31.10;87.70;;;;;;5112381;28;20031;-83
2023/07/30 12:06:11;;;;;;;5.65;3.55;;;31.10;88.60;;;;;;5112465;28;20032;-83
2023/07/30 12:08:38;;;;;;;8.77;4.93;;;30.90;90.20;;;;;;5112276;28;20085;-76
2023/07/30 12:11:05;;;;;;;13.00;8.05;;;30.70;88.40;;;;;;5098951;28;20015;-77
2023/07/30 12:13:32;;;;;;;8.77;6.13;;;30.70;88.50;;;;;;5110976;28;20493;-82
2023/07/30 12:15:58;;;;;;;6.72;5.00;;;30.90;90.10;;;;;;5112558;28;20032;-80
2023/07/30 12:18:25;;;;;;;6.60;4.47;;;31.10;90.10;;;;;;5112355;28;20031;-80
2023/07/30 12:20:53;;;;;;;9.65;4.70;;;31.30;89.80;;;;;;5112988;28;20463;-83
2023/07/30 12:23:19;;;;;;;6.97;4.38;;;31.30;88.90;;;;;;5113502;28;20059;-73
2023/07/30 12:25:46;;;;;;;8.57;4.72;;;31.20;89.30;;;;;;5112661;28;20074;-82
2023/07/30 12:28:12;;;;;;;7.95;4.93;;;31.20;89.90;;;;;;5111788;28;20016;-73
2023/07/30 12:30:38;;;;;;;6.60;4.25;;;31.00;90.00;;;;;;5111632;28;20035;-81
2023/07/30 12:33:05;;;;;;;5.75;3.83;;;31.10;88.80;;;;;;5112011;28;20027;-81
2023/07/30 12:35:32;;;;;;;8.50;5.20;;;31.30;89.10;;;;;;5112499;28;20024;-81
2023/07/30 12:37:59;;;;;;;6.78;3.75;;;31.20;89.50;;;;;;5111531;28;20058;-80
2023/07/30 12:40:25;;;;;;;7.43;4.35;;;31.20;89.00;;;;;;5114953;28;20028;-74
2023/07/30 12:42:51;;;;;;;6.80;3.97;;;31.00;88.40;;;;;;5115263;28;20048;-80